N610X KRNO-KTUS
Flight info
| Callsign | N610X |
|---|---|
| Flight time | 1h 31m |
| Altitude | 39000 |
| Route | ZEFFR9 PESKE SHUFL Q13 PRFUM J92 PXR DINGO6 |
| Aircraft | C750/M-SBDE3FGHRWXY/S |
Departure
| Time | 2026-04-23 19:42 |
|---|---|
| Airport | Reno Tahoe International Airport (KRNO) |
Arrival
| Time | 2026-04-23 21:13 |
|---|---|
| Airport | Tucson International Airport (KTUS) |
| Time | Latitude | Longitude | Altitude | Speed | Heading |
|---|---|---|---|---|---|
| 2026-04-23 19:20 | 39.50617 | -119.76524 | 4528 ft | 0 kts | 88° |
| 2026-04-23 19:36 | 39.50617 | -119.76522 | 4531 ft | 1 kts | 88° |
| 2026-04-23 19:36 | 39.50619 | -119.76503 | 4532 ft | 2 kts | 67° |
| 2026-04-23 19:37 | 39.50628 | -119.76494 | 4533 ft | 2 kts | 27° |
| 2026-04-23 19:37 | 39.50646 | -119.76494 | 4531 ft | 4 kts | 358° |
| 2026-04-23 19:37 | 39.50670 | -119.76512 | 4532 ft | 5 kts | 292° |
| 2026-04-23 19:37 | 39.50672 | -119.76557 | 4532 ft | 4 kts | 276° |
| 2026-04-23 19:38 | 39.50684 | -119.76574 | 4533 ft | 2 kts | 322° |
| 2026-04-23 19:38 | 39.50700 | -119.76577 | 4531 ft | 3 kts | 5° |
| 2026-04-23 19:38 | 39.50728 | -119.76579 | 4533 ft | 5 kts | 357° |
| 2026-04-23 19:38 | 39.50778 | -119.76578 | 4534 ft | 9 kts | 360° |
| 2026-04-23 19:39 | 39.50852 | -119.76579 | 4534 ft | 12 kts | 1° |
| 2026-04-23 19:39 | 39.50950 | -119.76578 | 4535 ft | 15 kts | 359° |
| 2026-04-23 19:39 | 39.51053 | -119.76578 | 4537 ft | 14 kts | 360° |
| 2026-04-23 19:39 | 39.51105 | -119.76535 | 4534 ft | 8 kts | 64° |
| 2026-04-23 19:40 | 39.51152 | -119.76515 | 4536 ft | 7 kts | 355° |
| 2026-04-23 19:40 | 39.51202 | -119.76515 | 4533 ft | 8 kts | 1° |
| 2026-04-23 19:40 | 39.51262 | -119.76516 | 4534 ft | 9 kts | 359° |
| 2026-04-23 19:40 | 39.51331 | -119.76517 | 4533 ft | 11 kts | 359° |
| 2026-04-23 19:41 | 39.51376 | -119.76568 | 4534 ft | 9 kts | 272° |
| 2026-04-23 19:41 | 39.51371 | -119.76638 | 4533 ft | 7 kts | 243° |
| 2026-04-23 19:41 | 39.51338 | -119.76673 | 4534 ft | 5 kts | 205° |
| 2026-04-23 19:41 | 39.51293 | -119.76676 | 4535 ft | 11 kts | 180° |
| 2026-04-23 19:42 | 39.51139 | -119.76675 | 4536 ft | 41 kts | 180° |
| 2026-04-23 19:42 | 39.50466 | -119.76675 | 4533 ft | 143 kts | 180° |
| 2026-04-23 19:42 | 39.49470 | -119.76677 | 5121 ft | 139 kts | 180° |
| 2026-04-23 19:42 | 39.48445 | -119.76708 | 5444 ft | 156 kts | 182° |
| 2026-04-23 19:43 | 39.47317 | -119.76762 | 5783 ft | 166 kts | 182° |
| 2026-04-23 19:43 | 39.46167 | -119.76810 | 6601 ft | 162 kts | 181° |
| 2026-04-23 19:43 | 39.45046 | -119.76854 | 7340 ft | 163 kts | 181° |
| 2026-04-23 19:43 | 39.43858 | -119.76902 | 7877 ft | 180 kts | 181° |
| 2026-04-23 19:44 | 39.42543 | -119.76917 | 8420 ft | 197 kts | 177° |
| 2026-04-23 19:44 | 39.41123 | -119.76906 | 8970 ft | 212 kts | 180° |
| 2026-04-23 19:44 | 39.39575 | -119.76945 | 9525 ft | 230 kts | 180° |
| 2026-04-23 19:44 | 39.37907 | -119.76959 | 10079 ft | 249 kts | 179° |
| 2026-04-23 19:45 | 39.36096 | -119.76959 | 10593 ft | 270 kts | 179° |
| 2026-04-23 19:45 | 39.34175 | -119.76961 | 11104 ft | 290 kts | 179° |
| 2026-04-23 19:45 | 39.32138 | -119.76498 | 11503 ft | 308 kts | 156° |
| 2026-04-23 19:45 | 39.30409 | -119.74778 | 11928 ft | 322 kts | 133° |
| 2026-04-23 19:46 | 39.28891 | -119.72566 | 12516 ft | 335 kts | 129° |
| 2026-04-23 19:46 | 39.27361 | -119.70257 | 13381 ft | 336 kts | 129° |
| 2026-04-23 19:46 | 39.25794 | -119.67992 | 14226 ft | 342 kts | 130° |
| 2026-04-23 19:46 | 39.24174 | -119.65701 | 14914 ft | 348 kts | 131° |
| 2026-04-23 19:47 | 39.22546 | -119.63364 | 15636 ft | 353 kts | 130° |
| 2026-04-23 19:47 | 39.20928 | -119.61013 | 16369 ft | 357 kts | 130° |
| 2026-04-23 19:47 | 39.19257 | -119.58600 | 17134 ft | 363 kts | 130° |
| 2026-04-23 19:47 | 39.17556 | -119.56164 | 17910 ft | 368 kts | 130° |
| 2026-04-23 19:48 | 39.15833 | -119.53699 | 18668 ft | 373 kts | 130° |
| 2026-04-23 19:48 | 39.13961 | -119.51323 | 19332 ft | 379 kts | 135° |
| 2026-04-23 19:48 | 39.12053 | -119.48952 | 20107 ft | 383 kts | 134° |
| 2026-04-23 19:48 | 39.10144 | -119.46532 | 20855 ft | 387 kts | 134° |
| 2026-04-23 19:49 | 39.08194 | -119.44099 | 21572 ft | 393 kts | 135° |
| 2026-04-23 19:49 | 39.06204 | -119.41651 | 22313 ft | 398 kts | 135° |
| 2026-04-23 19:49 | 39.04198 | -119.39170 | 23037 ft | 403 kts | 135° |
| 2026-04-23 19:49 | 39.02170 | -119.36645 | 23754 ft | 408 kts | 135° |
| 2026-04-23 19:50 | 39.00139 | -119.34123 | 24355 ft | 412 kts | 136° |
| 2026-04-23 19:50 | 38.98055 | -119.31549 | 24925 ft | 418 kts | 136° |
| 2026-04-23 19:50 | 38.95944 | -119.28943 | 25490 ft | 423 kts | 136° |
| 2026-04-23 19:50 | 38.93807 | -119.26301 | 26081 ft | 428 kts | 137° |
| 2026-04-23 19:51 | 38.91651 | -119.23637 | 26652 ft | 433 kts | 137° |
| 2026-04-23 19:51 | 38.89466 | -119.20944 | 27223 ft | 439 kts | 137° |
| 2026-04-23 19:51 | 38.87241 | -119.18204 | 27821 ft | 444 kts | 138° |
| 2026-04-23 19:51 | 38.85022 | -119.15473 | 28380 ft | 450 kts | 138° |
| 2026-04-23 19:52 | 38.82740 | -119.12665 | 28982 ft | 456 kts | 138° |
| 2026-04-23 19:52 | 38.80434 | -119.09832 | 29553 ft | 462 kts | 139° |
| 2026-04-23 19:52 | 38.78094 | -119.06961 | 30120 ft | 468 kts | 139° |
| 2026-04-23 19:52 | 38.75843 | -119.03888 | 30537 ft | 476 kts | 134° |
| 2026-04-23 19:53 | 38.73656 | -119.00679 | 31066 ft | 481 kts | 134° |
| 2026-04-23 19:53 | 38.71426 | -118.97443 | 31508 ft | 487 kts | 135° |
| 2026-04-23 19:53 | 38.69153 | -118.94190 | 31986 ft | 492 kts | 135° |
| 2026-04-23 19:53 | 38.66852 | -118.90887 | 32449 ft | 498 kts | 135° |
| 2026-04-23 19:54 | 38.64544 | -118.87547 | 32921 ft | 503 kts | 135° |
| 2026-04-23 19:54 | 38.62211 | -118.84178 | 33406 ft | 508 kts | 136° |
| 2026-04-23 19:54 | 38.59878 | -118.80833 | 33840 ft | 513 kts | 136° |
| 2026-04-23 19:54 | 38.57485 | -118.77407 | 34271 ft | 517 kts | 136° |
| 2026-04-23 19:55 | 38.55104 | -118.73988 | 34857 ft | 515 kts | 136° |
| 2026-04-23 19:55 | 38.52726 | -118.70569 | 35458 ft | 513 kts | 136° |
| 2026-04-23 19:55 | 38.50351 | -118.67175 | 36062 ft | 512 kts | 137° |
| 2026-04-23 19:55 | 38.47980 | -118.63792 | 36675 ft | 510 kts | 137° |
| 2026-04-23 19:56 | 38.45617 | -118.60416 | 37296 ft | 509 kts | 137° |
| 2026-04-23 19:56 | 38.43259 | -118.57048 | 37925 ft | 508 kts | 137° |
| 2026-04-23 19:56 | 38.40908 | -118.53697 | 38569 ft | 507 kts | 137° |
| 2026-04-23 19:56 | 38.38556 | -118.50354 | 39102 ft | 507 kts | 137° |
| 2026-04-23 19:57 | 38.36172 | -118.46971 | 39139 ft | 518 kts | 137° |
| 2026-04-23 19:57 | 38.31271 | -118.40010 | 39137 ft | 536 kts | 137° |
| 2026-04-23 19:58 | 38.26244 | -118.32886 | 39129 ft | 549 kts | 137° |
| 2026-04-23 19:58 | 38.21083 | -118.25593 | 39126 ft | 558 kts | 137° |
| 2026-04-23 19:59 | 38.15887 | -118.18263 | 39122 ft | 563 kts | 137° |
| 2026-04-23 19:59 | 38.10576 | -118.10794 | 39112 ft | 566 kts | 137° |
| 2026-04-23 20:00 | 38.05320 | -118.03416 | 39108 ft | 567 kts | 137° |
| 2026-04-23 20:00 | 38.00017 | -117.95993 | 39092 ft | 567 kts | 137° |
| 2026-04-23 20:01 | 37.94710 | -117.88580 | 39084 ft | 567 kts | 137° |
| 2026-04-23 20:01 | 37.89429 | -117.81218 | 39074 ft | 567 kts | 137° |
| 2026-04-23 20:02 | 37.84105 | -117.73816 | 39073 ft | 567 kts | 137° |
| 2026-04-23 20:02 | 37.78763 | -117.66459 | 39055 ft | 566 kts | 140° |
| 2026-04-23 20:03 | 37.72745 | -117.60196 | 39072 ft | 557 kts | 149° |
| 2026-04-23 20:03 | 37.66557 | -117.54263 | 39078 ft | 560 kts | 147° |
| 2026-04-23 20:04 | 37.60451 | -117.48176 | 39083 ft | 558 kts | 149° |
| 2026-04-23 20:04 | 37.54296 | -117.42270 | 39079 ft | 559 kts | 148° |
| 2026-04-23 20:05 | 37.49197 | -117.37233 | 39077 ft | 558 kts | 148° |
| 2026-04-23 20:05 | 37.41993 | -117.30286 | 39062 ft | 558 kts | 149° |
| 2026-04-23 20:06 | 37.35846 | -117.24303 | 39062 ft | 558 kts | 149° |
| 2026-04-23 20:06 | 37.29654 | -117.18522 | 39060 ft | 556 kts | 150° |
| 2026-04-23 20:07 | 37.23356 | -117.12981 | 39059 ft | 553 kts | 153° |
| 2026-04-23 20:07 | 37.17016 | -117.07681 | 39048 ft | 545 kts | 153° |
| 2026-04-23 20:08 | 37.10700 | -117.02338 | 39041 ft | 549 kts | 153° |
| 2026-04-23 20:08 | 37.04346 | -116.97014 | 39037 ft | 549 kts | 153° |
| 2026-04-23 20:09 | 36.97996 | -116.91679 | 39029 ft | 548 kts | 153° |
| 2026-04-23 20:09 | 36.91650 | -116.86374 | 39026 ft | 549 kts | 154° |
| 2026-04-23 20:10 | 36.86374 | -116.81965 | 39021 ft | 548 kts | 154° |
| 2026-04-23 20:10 | 36.79000 | -116.75816 | 39019 ft | 547 kts | 154° |
| 2026-04-23 20:11 | 36.72676 | -116.70556 | 39007 ft | 546 kts | 154° |
| 2026-04-23 20:11 | 36.67422 | -116.66190 | 39007 ft | 545 kts | 154° |
| 2026-04-23 20:11 | 36.63434 | -116.62280 | 38991 ft | 557 kts | 143° |
| 2026-04-23 20:12 | 36.60793 | -116.58730 | 39001 ft | 563 kts | 135° |
| 2026-04-23 20:12 | 36.57221 | -116.51793 | 39002 ft | 574 kts | 122° |
| 2026-04-23 20:13 | 36.53901 | -116.42717 | 39019 ft | 577 kts | 117° |
| 2026-04-23 20:13 | 36.50388 | -116.33806 | 39009 ft | 572 kts | 123° |
| 2026-04-23 20:14 | 36.46758 | -116.25044 | 38998 ft | 575 kts | 119° |
| 2026-04-23 20:15 | 36.44729 | -116.19679 | 38994 ft | 573 kts | 120° |
| 2026-04-23 20:15 | 36.41071 | -116.10886 | 38994 ft | 573 kts | 122° |
| 2026-04-23 20:16 | 36.37546 | -116.02009 | 39008 ft | 574 kts | 120° |
| 2026-04-23 20:16 | 36.33937 | -115.93190 | 39026 ft | 572 kts | 122° |
| 2026-04-23 20:17 | 36.30370 | -115.84391 | 39026 ft | 573 kts | 121° |
| 2026-04-23 20:17 | 36.26777 | -115.75572 | 39033 ft | 572 kts | 122° |
| 2026-04-23 20:18 | 36.23178 | -115.66792 | 39040 ft | 572 kts | 121° |
| 2026-04-23 20:18 | 36.19890 | -115.58736 | 39054 ft | 571 kts | 121° |
| 2026-04-23 20:19 | 36.16271 | -115.49968 | 39045 ft | 571 kts | 121° |
| 2026-04-23 20:19 | 36.12675 | -115.41210 | 39045 ft | 571 kts | 121° |
| 2026-04-23 20:20 | 36.11648 | -115.38729 | 39041 ft | 570 kts | 121° |
| 2026-04-23 20:20 | 36.08627 | -115.31440 | 39042 ft | 570 kts | 121° |
| 2026-04-23 20:21 | 36.05126 | -115.22973 | 39039 ft | 571 kts | 121° |
| 2026-04-23 20:21 | 36.01498 | -115.14254 | 39064 ft | 571 kts | 121° |
| 2026-04-23 20:22 | 35.97866 | -115.05528 | 39066 ft | 570 kts | 121° |
| 2026-04-23 20:22 | 35.94229 | -114.96824 | 39023 ft | 570 kts | 121° |
| 2026-04-23 20:23 | 35.90610 | -114.88182 | 39024 ft | 570 kts | 121° |
| 2026-04-23 20:23 | 35.86961 | -114.79493 | 39024 ft | 570 kts | 121° |
| 2026-04-23 20:24 | 35.83314 | -114.70828 | 39011 ft | 569 kts | 121° |
| 2026-04-23 20:24 | 35.79650 | -114.62152 | 38996 ft | 569 kts | 122° |
| 2026-04-23 20:25 | 35.76013 | -114.53557 | 38964 ft | 569 kts | 121° |
| 2026-04-23 20:25 | 35.72349 | -114.44922 | 38947 ft | 569 kts | 122° |
| 2026-04-23 20:26 | 35.68678 | -114.36295 | 38945 ft | 568 kts | 122° |
| 2026-04-23 20:26 | 35.65004 | -114.27678 | 38937 ft | 568 kts | 122° |
| 2026-04-23 20:27 | 35.61327 | -114.19084 | 38930 ft | 568 kts | 122° |
| 2026-04-23 20:27 | 35.57662 | -114.10531 | 38943 ft | 568 kts | 122° |
| 2026-04-23 20:28 | 35.53969 | -114.01942 | 38956 ft | 568 kts | 122° |
| 2026-04-23 20:28 | 35.50214 | -113.93405 | 38956 ft | 565 kts | 126° |
| 2026-04-23 20:29 | 35.45864 | -113.85391 | 38997 ft | 563 kts | 129° |
| 2026-04-23 20:29 | 35.41535 | -113.77369 | 38994 ft | 564 kts | 128° |
| 2026-04-23 20:30 | 35.37234 | -113.69407 | 38982 ft | 564 kts | 129° |
| 2026-04-23 20:30 | 35.30710 | -113.57388 | 38949 ft | 565 kts | 129° |
| 2026-04-23 20:31 | 35.26335 | -113.49396 | 38909 ft | 565 kts | 129° |
| 2026-04-23 20:31 | 35.21968 | -113.41377 | 38909 ft | 566 kts | 129° |
| 2026-04-23 20:32 | 35.17586 | -113.33376 | 38911 ft | 567 kts | 129° |
| 2026-04-23 20:32 | 35.13275 | -113.25518 | 38912 ft | 567 kts | 129° |
| 2026-04-23 20:33 | 35.08907 | -113.17566 | 38910 ft | 567 kts | 130° |
| 2026-04-23 20:33 | 35.04491 | -113.09558 | 38914 ft | 568 kts | 130° |
| 2026-04-23 20:34 | 35.00288 | -113.01940 | 38904 ft | 568 kts | 130° |
| 2026-04-23 20:34 | 34.95864 | -112.93952 | 38906 ft | 568 kts | 130° |
| 2026-04-23 20:35 | 34.91441 | -112.85985 | 38905 ft | 568 kts | 130° |
| 2026-04-23 20:35 | 34.87006 | -112.78002 | 38906 ft | 568 kts | 130° |
| 2026-04-23 20:36 | 34.82593 | -112.70089 | 38944 ft | 569 kts | 131° |
| 2026-04-23 20:36 | 34.78143 | -112.62117 | 38986 ft | 569 kts | 131° |
| 2026-04-23 20:37 | 34.73549 | -112.54300 | 39022 ft | 562 kts | 138° |
| 2026-04-23 20:37 | 34.67829 | -112.48117 | 39055 ft | 540 kts | 155° |
| 2026-04-23 20:38 | 34.64601 | -112.45888 | 39057 ft | 527 kts | 164° |
| 2026-04-23 20:38 | 34.61236 | -112.44259 | 39061 ft | 515 kts | 171° |
| 2026-04-23 20:38 | 34.54409 | -112.41650 | 39064 ft | 516 kts | 172° |
| 2026-04-23 20:39 | 34.47604 | -112.38767 | 39008 ft | 516 kts | 172° |
| 2026-04-23 20:39 | 34.40793 | -112.36086 | 38851 ft | 512 kts | 174° |
| 2026-04-23 20:40 | 34.33956 | -112.33758 | 38806 ft | 510 kts | 176° |
| 2026-04-23 20:40 | 34.27134 | -112.31767 | 39063 ft | 496 kts | 179° |
| 2026-04-23 20:41 | 34.23804 | -112.30878 | 39175 ft | 503 kts | 176° |
| 2026-04-23 20:41 | 34.20465 | -112.29434 | 39033 ft | 515 kts | 168° |
| 2026-04-23 20:41 | 34.17182 | -112.27565 | 38911 ft | 528 kts | 165° |
| 2026-04-23 20:41 | 34.13898 | -112.25569 | 38922 ft | 528 kts | 164° |
| 2026-04-23 20:42 | 34.07191 | -112.22137 | 38908 ft | 515 kts | 173° |
| 2026-04-23 20:42 | 34.00344 | -112.19814 | 38918 ft | 511 kts | 176° |
| 2026-04-23 20:43 | 33.93608 | -112.16821 | 38919 ft | 532 kts | 164° |
| 2026-04-23 20:43 | 33.86953 | -112.13067 | 38937 ft | 516 kts | 173° |
| 2026-04-23 20:44 | 33.83516 | -112.12072 | 38942 ft | 501 kts | 182° |
| 2026-04-23 20:44 | 33.80087 | -112.11615 | 38953 ft | 492 kts | 187° |
| 2026-04-23 20:44 | 33.73807 | -112.11166 | 38967 ft | 492 kts | 188° |
| 2026-04-23 20:45 | 33.66926 | -112.09894 | 38956 ft | 508 kts | 179° |
| 2026-04-23 20:45 | 33.60366 | -112.07911 | 38117 ft | 518 kts | 178° |
| 2026-04-23 20:46 | 33.56875 | -112.07107 | 37379 ft | 499 kts | 181° |
| 2026-04-23 20:46 | 33.53513 | -112.06420 | 36565 ft | 479 kts | 181° |
| 2026-04-23 20:46 | 33.50238 | -112.05645 | 35798 ft | 479 kts | 179° |
| 2026-04-23 20:46 | 33.47004 | -112.04798 | 35057 ft | 473 kts | 178° |
| 2026-04-23 20:47 | 33.43806 | -112.04005 | 34319 ft | 464 kts | 178° |
| 2026-04-23 20:47 | 33.40660 | -112.03290 | 33573 ft | 456 kts | 179° |
| 2026-04-23 20:47 | 33.37564 | -112.02569 | 32860 ft | 449 kts | 178° |
| 2026-04-23 20:47 | 33.34525 | -112.01821 | 32159 ft | 442 kts | 177° |
| 2026-04-23 20:48 | 33.31531 | -112.01089 | 31459 ft | 436 kts | 177° |
| 2026-04-23 20:48 | 33.28570 | -112.00390 | 30772 ft | 431 kts | 177° |
| 2026-04-23 20:48 | 33.25638 | -111.99700 | 30118 ft | 425 kts | 177° |
| 2026-04-23 20:48 | 33.22764 | -111.99009 | 29406 ft | 419 kts | 176° |
| 2026-04-23 20:49 | 33.19956 | -111.98331 | 28758 ft | 415 kts | 176° |
| 2026-04-23 20:49 | 33.17121 | -111.97659 | 28107 ft | 415 kts | 176° |
| 2026-04-23 20:49 | 33.14283 | -111.96989 | 27449 ft | 415 kts | 176° |
| 2026-04-23 20:49 | 33.11451 | -111.96311 | 26794 ft | 415 kts | 176° |
| 2026-04-23 20:50 | 33.08625 | -111.95633 | 26147 ft | 414 kts | 176° |
| 2026-04-23 20:50 | 33.05806 | -111.94963 | 25500 ft | 413 kts | 176° |
| 2026-04-23 20:50 | 33.02994 | -111.94297 | 24856 ft | 412 kts | 175° |
| 2026-04-23 20:50 | 33.00185 | -111.93629 | 24211 ft | 411 kts | 175° |
| 2026-04-23 20:51 | 32.97382 | -111.92961 | 23568 ft | 411 kts | 175° |
| 2026-04-23 20:51 | 32.94587 | -111.92296 | 22871 ft | 407 kts | 175° |
| 2026-04-23 20:51 | 32.91828 | -111.91640 | 22235 ft | 401 kts | 175° |
| 2026-04-23 20:51 | 32.89121 | -111.90873 | 21547 ft | 403 kts | 167° |
| 2026-04-23 20:52 | 32.86629 | -111.89269 | 21037 ft | 405 kts | 152° |
| 2026-04-23 20:52 | 32.84311 | -111.87364 | 20535 ft | 405 kts | 150° |
| 2026-04-23 20:52 | 32.82024 | -111.85428 | 19998 ft | 403 kts | 150° |
| 2026-04-23 20:52 | 32.79771 | -111.83547 | 19470 ft | 399 kts | 150° |
| 2026-04-23 20:53 | 32.77490 | -111.81678 | 18937 ft | 396 kts | 150° |
| 2026-04-23 20:53 | 32.75231 | -111.79821 | 18415 ft | 393 kts | 150° |
| 2026-04-23 20:53 | 32.73003 | -111.77970 | 17859 ft | 390 kts | 150° |
| 2026-04-23 20:53 | 32.70789 | -111.76134 | 17335 ft | 385 kts | 150° |
| 2026-04-23 20:54 | 32.69105 | -111.74746 | 16936 ft | 383 kts | 150° |
| 2026-04-23 20:54 | 32.66917 | -111.72948 | 16426 ft | 380 kts | 150° |
| 2026-04-23 20:54 | 32.64755 | -111.71164 | 15909 ft | 377 kts | 150° |
| 2026-04-23 20:54 | 32.62611 | -111.69393 | 15407 ft | 375 kts | 150° |
| 2026-04-23 20:55 | 32.60474 | -111.67633 | 14917 ft | 371 kts | 150° |
| 2026-04-23 20:55 | 32.58358 | -111.65893 | 14436 ft | 367 kts | 150° |
| 2026-04-23 20:55 | 32.56295 | -111.64196 | 13959 ft | 365 kts | 150° |
| 2026-04-23 20:55 | 32.54625 | -111.62485 | 13448 ft | 371 kts | 135° |
| 2026-04-23 20:56 | 32.53080 | -111.60025 | 13042 ft | 371 kts | 130° |
| 2026-04-23 20:56 | 32.51563 | -111.57573 | 12544 ft | 366 kts | 130° |
| 2026-04-23 20:56 | 32.50032 | -111.55176 | 12082 ft | 362 kts | 131° |
| 2026-04-23 20:56 | 32.48250 | -111.53042 | 11941 ft | 364 kts | 143° |
| 2026-04-23 20:57 | 32.46303 | -111.51091 | 11952 ft | 366 kts | 144° |
| 2026-04-23 20:57 | 32.44375 | -111.49170 | 11954 ft | 368 kts | 144° |
| 2026-04-23 20:57 | 32.42441 | -111.47180 | 11954 ft | 368 kts | 143° |
| 2026-04-23 20:57 | 32.40508 | -111.45184 | 11955 ft | 368 kts | 143° |
| 2026-04-23 20:58 | 32.38624 | -111.43257 | 11942 ft | 341 kts | 144° |
| 2026-04-23 20:58 | 32.36903 | -111.41503 | 11929 ft | 314 kts | 144° |
| 2026-04-23 20:58 | 32.35270 | -111.39853 | 11922 ft | 310 kts | 145° |
| 2026-04-23 20:58 | 32.34167 | -111.38743 | 11930 ft | 315 kts | 144° |
| 2026-04-23 20:59 | 32.31954 | -111.36492 | 11933 ft | 319 kts | 144° |
| 2026-04-23 20:59 | 32.30269 | -111.34772 | 11937 ft | 320 kts | 144° |
| 2026-04-23 20:59 | 32.28659 | -111.33134 | 11938 ft | 320 kts | 144° |
| 2026-04-23 20:59 | 32.26970 | -111.31424 | 11942 ft | 319 kts | 144° |
| 2026-04-23 21:00 | 32.25851 | -111.30289 | 11944 ft | 320 kts | 144° |
| 2026-04-23 21:00 | 32.24160 | -111.28573 | 11947 ft | 320 kts | 144° |
| 2026-04-23 21:00 | 32.22474 | -111.26862 | 11949 ft | 320 kts | 144° |
| 2026-04-23 21:00 | 32.20788 | -111.25153 | 11962 ft | 320 kts | 144° |
| 2026-04-23 21:01 | 32.19092 | -111.23436 | 11951 ft | 320 kts | 144° |
| 2026-04-23 21:01 | 32.17406 | -111.21729 | 11958 ft | 319 kts | 144° |
| 2026-04-23 21:01 | 32.15716 | -111.20017 | 11962 ft | 319 kts | 144° |
| 2026-04-23 21:01 | 32.14032 | -111.18314 | 11949 ft | 319 kts | 144° |
| 2026-04-23 21:02 | 32.12342 | -111.16607 | 11945 ft | 319 kts | 144° |
| 2026-04-23 21:02 | 32.10651 | -111.14898 | 11954 ft | 320 kts | 144° |
| 2026-04-23 21:02 | 32.08959 | -111.13189 | 11946 ft | 319 kts | 144° |
| 2026-04-23 21:02 | 32.07276 | -111.11490 | 11951 ft | 319 kts | 144° |
| 2026-04-23 21:03 | 32.05613 | -111.09812 | 11945 ft | 317 kts | 144° |
| 2026-04-23 21:03 | 32.03934 | -111.08117 | 11934 ft | 313 kts | 144° |
| 2026-04-23 21:03 | 32.02367 | -111.06524 | 11945 ft | 283 kts | 144° |
| 2026-04-23 21:03 | 32.00873 | -111.05023 | 11952 ft | 284 kts | 145° |
| 2026-04-23 21:04 | 31.99365 | -111.03518 | 11816 ft | 285 kts | 145° |
| 2026-04-23 21:04 | 31.97863 | -111.02004 | 11475 ft | 283 kts | 144° |
| 2026-04-23 21:04 | 31.96372 | -111.00498 | 11097 ft | 280 kts | 144° |
| 2026-04-23 21:04 | 31.94899 | -110.99016 | 10728 ft | 278 kts | 144° |
| 2026-04-23 21:05 | 31.93439 | -110.97543 | 10373 ft | 274 kts | 143° |
| 2026-04-23 21:05 | 31.92093 | -110.95952 | 10022 ft | 275 kts | 139° |
| 2026-04-23 21:05 | 31.90755 | -110.94397 | 9649 ft | 262 kts | 140° |
| 2026-04-23 21:05 | 31.89470 | -110.92921 | 9305 ft | 255 kts | 139° |
| 2026-04-23 21:06 | 31.88282 | -110.91417 | 8951 ft | 257 kts | 129° |
| 2026-04-23 21:06 | 31.87712 | -110.89425 | 8574 ft | 261 kts | 96° |
| 2026-04-23 21:06 | 31.88028 | -110.87353 | 8256 ft | 258 kts | 65° |
| 2026-04-23 21:06 | 31.89094 | -110.85699 | 7984 ft | 251 kts | 43° |
| 2026-04-23 21:07 | 31.90285 | -110.84329 | 7725 ft | 229 kts | 41° |
| 2026-04-23 21:07 | 31.91390 | -110.83053 | 7438 ft | 216 kts | 41° |
| 2026-04-23 21:07 | 31.92442 | -110.81812 | 7180 ft | 213 kts | 42° |
| 2026-04-23 21:07 | 31.93491 | -110.80575 | 6899 ft | 213 kts | 42° |
| 2026-04-23 21:08 | 31.94529 | -110.79355 | 6640 ft | 211 kts | 42° |
| 2026-04-23 21:08 | 31.95614 | -110.78220 | 6332 ft | 208 kts | 29° |
| 2026-04-23 21:08 | 31.96952 | -110.77857 | 6034 ft | 197 kts | 355° |
| 2026-04-23 21:08 | 31.98203 | -110.78324 | 5853 ft | 187 kts | 325° |
| 2026-04-23 21:09 | 31.99162 | -110.79350 | 5653 ft | 185 kts | 312° |
| 2026-04-23 21:09 | 32.00078 | -110.80437 | 5418 ft | 187 kts | 312° |
| 2026-04-23 21:09 | 32.01008 | -110.81517 | 5188 ft | 187 kts | 312° |
| 2026-04-23 21:09 | 32.01874 | -110.82523 | 4937 ft | 159 kts | 312° |
| 2026-04-23 21:10 | 32.02612 | -110.83383 | 4721 ft | 141 kts | 312° |
| 2026-04-23 21:10 | 32.03295 | -110.84185 | 4599 ft | 143 kts | 311° |
| 2026-04-23 21:10 | 32.03987 | -110.84997 | 4427 ft | 135 kts | 313° |
| 2026-04-23 21:10 | 32.04628 | -110.85747 | 4475 ft | 134 kts | 313° |
| 2026-04-23 21:11 | 32.05344 | -110.86575 | 4290 ft | 143 kts | 314° |
| 2026-04-23 21:11 | 32.06024 | -110.87388 | 4119 ft | 135 kts | 313° |
| 2026-04-23 21:11 | 32.06680 | -110.88166 | 3966 ft | 133 kts | 313° |
| 2026-04-23 21:11 | 32.07322 | -110.88972 | 3762 ft | 137 kts | 313° |
| 2026-04-23 21:12 | 32.08012 | -110.89759 | 3471 ft | 137 kts | 317° |
| 2026-04-23 21:12 | 32.08698 | -110.90513 | 3170 ft | 131 kts | 314° |
| 2026-04-23 21:12 | 32.09319 | -110.91247 | 2950 ft | 127 kts | 314° |
| 2026-04-23 21:12 | 32.09935 | -110.91977 | 2761 ft | 125 kts | 312° |
| 2026-04-23 21:13 | 32.10537 | -110.92682 | 2641 ft | 115 kts | 313° |
| 2026-04-23 21:13 | 32.10972 | -110.93191 | 2621 ft | 70 kts | 315° |
| 2026-04-23 21:13 | 32.11291 | -110.93565 | 2611 ft | 59 kts | 316° |
| 2026-04-23 21:13 | 32.11548 | -110.93866 | 2600 ft | 38 kts | 315° |
| 2026-04-23 21:14 | 32.11705 | -110.94051 | 2593 ft | 26 kts | 315° |
| 2026-04-23 21:14 | 32.11783 | -110.94098 | 2587 ft | 9 kts | 358° |
| 2026-04-23 21:14 | 32.11849 | -110.94097 | 2587 ft | 10 kts | 360° |
| 2026-04-23 21:14 | 32.11883 | -110.94097 | 2584 ft | 0 kts | 360° |
| 2026-04-23 21:15 | 32.11898 | -110.94097 | 2584 ft | 4 kts | 360° |
| 2026-04-23 21:15 | 32.11930 | -110.94097 | 2588 ft | 6 kts | 0° |
| 2026-04-23 21:16 | 32.11968 | -110.94112 | 2587 ft | 6 kts | 316° |
| 2026-04-23 21:16 | 32.12000 | -110.94150 | 2587 ft | 7 kts | 314° |
| 2026-04-23 21:16 | 32.12041 | -110.94199 | 2587 ft | 10 kts | 315° |
| 2026-04-23 21:16 | 32.12095 | -110.94263 | 2585 ft | 13 kts | 315° |
| 2026-04-23 21:17 | 32.12174 | -110.94355 | 2581 ft | 19 kts | 315° |
| 2026-04-23 21:17 | 32.12275 | -110.94474 | 2577 ft | 22 kts | 315° |
| 2026-04-23 21:17 | 32.12399 | -110.94619 | 2569 ft | 26 kts | 316° |
| 2026-04-23 21:17 | 32.12469 | -110.94701 | 2568 ft | 4 kts | 314° |
| 2026-04-23 21:18 | 32.12497 | -110.94728 | 2568 ft | 7 kts | 341° |
| 2026-04-23 21:18 | 32.12531 | -110.94704 | 2568 ft | 5 kts | 45° |
| 2026-04-23 21:18 | 32.12555 | -110.94673 | 2568 ft | 5 kts | 44° |
| 2026-04-23 21:18 | 32.12588 | -110.94634 | 2569 ft | 9 kts | 44° |
| 2026-04-23 21:19 | 32.12640 | -110.94573 | 2569 ft | 12 kts | 45° |
| 2026-04-23 21:19 | 32.12703 | -110.94499 | 2573 ft | 12 kts | 45° |
| 2026-04-23 21:19 | 32.12759 | -110.94433 | 2573 ft | 11 kts | 44° |
| 2026-04-23 21:19 | 32.12807 | -110.94377 | 2575 ft | 9 kts | 45° |
| 2026-04-23 21:20 | 32.12823 | -110.94347 | 2574 ft | 2 kts | 96° |
| 2026-04-23 21:20 | 32.12817 | -110.94336 | 2576 ft | 1 kts | 131° |
| 2026-04-23 21:20 | 32.12804 | -110.94322 | 2574 ft | 4 kts | 135° |
| 2026-04-23 21:20 | 32.12797 | -110.94301 | 2576 ft | 1 kts | 74° |
| 2026-04-23 21:21 | 32.12804 | -110.94294 | 2577 ft | 2 kts | 43° |
| 2026-04-23 21:21 | 32.12809 | -110.94285 | 2574 ft | 1 kts | 71° |
| 2026-04-23 21:21 | 32.12799 | -110.94271 | 2577 ft | 4 kts | 137° |
| 2026-04-23 21:21 | 32.12785 | -110.94256 | 2574 ft | 0 kts | 137° |